Auburn, Michigan
Current Conditions -  °F | °C
As of 2:53 PM on Saturday 25 Oct 2014 (Local Time) from KMBS Reporting Station
Clear Clear  
Wind Chill: 68°   Ceiling: Unl
Heat Index: 68°   Visibility: 10mi
Dew Point: 34°   Wind: 25mph
Humidity: 28%   Direction: 270°W
Pressure: 29.7"   Gusts: 36mph
Location:  43.6°N, 84.07°W
Report Text: KMBS 251853Z 27022G31KT 10SM CLR 20/01 A2970 RMK AO2 PK WND 26031/1834 SLP057 T02000011
Loading
Personal Weather Stations






























Interactive Weather Map
Tropical Storm Tracking
New forecast layout! Learn more

10-Day Weather Forecast

Advertisements
Track Severe Weather on mobile